sensor_id;sensor_type;location;lat;lon;timestamp;P1;durP1;ratioP1;P2;durP2;ratioP2
8564;SDS011;4320;51.498;6.556;2023-02-01T00:01:17;16.73;;;4.10;;
8564;SDS011;4320;51.498;6.556;2023-02-01T00:03:43;16.63;;;4.60;;
8564;SDS011;4320;51.498;6.556;2023-02-01T00:06:08;13.07;;;4.13;;
8564;SDS011;4320;51.498;6.556;2023-02-01T00:08:34;13.57;;;4.13;;
8564;SDS011;4320;51.498;6.556;2023-02-01T00:11:10;8.20;;;3.72;;
8564;SDS011;4320;51.498;6.556;2023-02-01T00:13:37;11.33;;;3.77;;
8564;SDS011;4320;51.498;6.556;2023-02-01T00:16:05;12.35;;;4.28;;
8564;SDS011;4320;51.498;6.556;2023-02-01T00:18:42;12.68;;;3.95;;
8564;SDS011;4320;51.498;6.556;2023-02-01T00:21:08;19.05;;;5.85;;
8564;SDS011;4320;51.498;6.556;2023-02-01T00:23:35;15.40;;;5.60;;
8564;SDS011;4320;51.498;6.556;2023-02-01T00:26:03;16.65;;;6.57;;
8564;SDS011;4320;51.498;6.556;2023-02-01T00:28:31;21.63;;;5.22;;
8564;SDS011;4320;51.498;6.556;2023-02-01T00:31:01;17.93;;;4.97;;
8564;SDS011;4320;51.498;6.556;2023-02-01T00:33:29;16.63;;;5.70;;
8564;SDS011;4320;51.498;6.556;2023-02-01T00:36:03;15.67;;;5.30;;
8564;SDS011;4320;51.498;6.556;2023-02-01T00:38:30;13.20;;;6.15;;
8564;SDS011;4320;51.498;6.556;2023-02-01T00:41:04;15.40;;;5.23;;
8564;SDS011;4320;51.498;6.556;2023-02-01T00:43:31;15.75;;;5.75;;
8564;SDS011;4320;51.498;6.556;2023-02-01T00:45:57;16.65;;;6.15;;
8564;SDS011;4320;51.498;6.556;2023-02-01T00:48:23;15.77;;;5.68;;
8564;SDS011;4320;51.498;6.556;2023-02-01T00:50:49;17.88;;;6.05;;
8564;SDS011;4320;51.498;6.556;2023-02-01T00:53:15;19.50;;;6.87;;
8564;SDS011;4320;51.498;6.556;2023-02-01T00:55:40;19.15;;;6.90;;
8564;SDS011;4320;51.498;6.556;2023-02-01T00:58:09;17.30;;;7.03;;
8564;SDS011;4320;51.498;6.556;2023-02-01T01:00:34;16.50;;;6.03;;
8564;SDS011;4320;51.498;6.556;2023-02-01T01:03:00;15.10;;;5.33;;
8564;SDS011;4320;51.498;6.556;2023-02-01T01:05:26;12.23;;;6.03;;
8564;SDS011;4320;51.498;6.556;2023-02-01T01:07:52;13.88;;;5.65;;
8564;SDS011;4320;51.498;6.556;2023-02-01T01:10:18;18.63;;;5.43;;
8564;SDS011;4320;51.498;6.556;2023-02-01T01:12:44;16.70;;;5.65;;
8564;SDS011;4320;51.498;6.556;2023-02-01T01:15:10;14.52;;;5.50;;
8564;SDS011;4320;51.498;6.556;2023-02-01T01:17:35;15.77;;;4.88;;
8564;SDS011;4320;51.498;6.556;2023-02-01T01:20:01;10.80;;;5.38;;
8564;SDS011;4320;51.498;6.556;2023-02-01T01:22:28;15.63;;;5.47;;
8564;SDS011;4320;51.498;6.556;2023-02-01T01:24:53;19.27;;;6.07;;
8564;SDS011;4320;51.498;6.556;2023-02-01T01:27:19;18.80;;;4.82;;
8564;SDS011;4320;51.498;6.556;2023-02-01T01:29:48;15.10;;;5.68;;
8564;SDS011;4320;51.498;6.556;2023-02-01T01:32:14;13.55;;;5.07;;
8564;SDS011;4320;51.498;6.556;2023-02-01T01:34:40;15.27;;;5.57;;
8564;SDS011;4320;51.498;6.556;2023-02-01T01:37:05;16.30;;;5.30;;
8564;SDS011;4320;51.498;6.556;2023-02-01T01:39:31;11.60;;;4.20;;
8564;SDS011;4320;51.498;6.556;2023-02-01T01:41:57;13.85;;;4.78;;
8564;SDS011;4320;51.498;6.556;2023-02-01T01:47:21;17.60;;;4.20;;
8564;SDS011;4320;51.498;6.556;2023-02-01T01:49:47;13.97;;;4.47;;
8564;SDS011;4320;51.498;6.556;2023-02-01T01:52:13;11.90;;;4.45;;
8564;SDS011;4320;51.498;6.556;2023-02-01T01:54:41;14.05;;;4.15;;
8564;SDS011;4320;51.498;6.556;2023-02-01T01:57:14;12.35;;;4.25;;
8564;SDS011;4320;51.498;6.556;2023-02-01T01:59:50;15.27;;;4.85;;
8564;SDS011;4320;51.498;6.556;2023-02-01T02:02:21;18.02;;;5.15;;
8564;SDS011;4320;51.498;6.556;2023-02-01T02:04:46;18.30;;;3.93;;
8564;SDS011;4320;51.498;6.556;2023-02-01T02:07:14;17.02;;;3.97;;
8564;SDS011;4320;51.498;6.556;2023-02-01T02:09:44;16.05;;;4.10;;
8564;SDS011;4320;51.498;6.556;2023-02-01T02:12:09;11.10;;;3.72;;
8564;SDS011;4320;51.498;6.556;2023-02-01T02:14:35;16.60;;;4.20;;
8564;SDS011;4320;51.498;6.556;2023-02-01T02:17:14;13.40;;;4.35;;
8564;SDS011;4320;51.498;6.556;2023-02-01T02:20:00;15.20;;;3.53;;
8564;SDS011;4320;51.498;6.556;2023-02-01T02:28:28;18.42;;;3.47;;
8564;SDS011;4320;51.498;6.556;2023-02-01T02:39:37;16.13;;;3.63;;
8564;SDS011;4320;51.498;6.556;2023-02-01T02:42:20;11.83;;;3.47;;
8564;SDS011;4320;51.498;6.556;2023-02-01T02:51:14;18.33;;;3.37;;
8564;SDS011;4320;51.498;6.556;2023-02-01T02:54:09;12.53;;;3.23;;
8564;SDS011;4320;51.498;6.556;2023-02-01T02:57:58;15.33;;;3.47;;
8564;SDS011;4320;51.498;6.556;2023-02-01T03:00:19;13.20;;;3.83;;
8564;SDS011;4320;51.498;6.556;2023-02-01T03:03:06;13.97;;;3.40;;
8564;SDS011;4320;51.498;6.556;2023-02-01T03:05:50;18.67;;;4.00;;
8564;SDS011;4320;51.498;6.556;2023-02-01T03:08:21;11.17;;;3.37;;
8564;SDS011;4320;51.498;6.556;2023-02-01T03:10:53;11.30;;;4.17;;
8564;SDS011;4320;51.498;6.556;2023-02-01T03:13:45;14.70;;;3.60;;
8564;SDS011;4320;51.498;6.556;2023-02-01T03:16:19;14.23;;;4.23;;
8564;SDS011;4320;51.498;6.556;2023-02-01T03:19:29;14.43;;;4.85;;
8564;SDS011;4320;51.498;6.556;2023-02-01T03:22:04;14.63;;;3.70;;
8564;SDS011;4320;51.498;6.556;2023-02-01T03:24:34;15.33;;;3.90;;
8564;SDS011;4320;51.498;6.556;2023-02-01T03:27:14;9.20;;;3.33;;
8564;SDS011;4320;51.498;6.556;2023-02-01T03:32:19;13.37;;;3.60;;
8564;SDS011;4320;51.498;6.556;2023-02-01T03:34:45;14.60;;;4.60;;
8564;SDS011;4320;51.498;6.556;2023-02-01T03:37:16;20.93;;;4.43;;
8564;SDS011;4320;51.498;6.556;2023-02-01T03:39:59;11.85;;;4.18;;
8564;SDS011;4320;51.498;6.556;2023-02-01T03:42:33;15.33;;;3.70;;
8564;SDS011;4320;51.498;6.556;2023-02-01T03:47:41;16.23;;;4.60;;
8564;SDS011;4320;51.498;6.556;2023-02-01T03:50:10;17.40;;;4.13;;
8564;SDS011;4320;51.498;6.556;2023-02-01T03:52:41;16.90;;;4.20;;
8564;SDS011;4320;51.498;6.556;2023-02-01T03:55:14;17.43;;;4.10;;
8564;SDS011;4320;51.498;6.556;2023-02-01T03:57:46;18.40;;;5.13;;
8564;SDS011;4320;51.498;6.556;2023-02-01T04:00:18;14.20;;;4.90;;
8564;SDS011;4320;51.498;6.556;2023-02-01T04:02:47;12.17;;;3.93;;
8564;SDS011;4320;51.498;6.556;2023-02-01T04:05:13;10.77;;;3.03;;
8564;SDS011;4320;51.498;6.556;2023-02-01T04:07:38;19.93;;;4.53;;
8564;SDS011;4320;51.498;6.556;2023-02-01T04:10:04;13.23;;;4.30;;
8564;SDS011;4320;51.498;6.556;2023-02-01T04:12:30;18.23;;;4.17;;
8564;SDS011;4320;51.498;6.556;2023-02-01T04:14:56;12.13;;;3.93;;
8564;SDS011;4320;51.498;6.556;2023-02-01T04:17:21;14.03;;;4.00;;
8564;SDS011;4320;51.498;6.556;2023-02-01T04:19:47;12.97;;;4.37;;
8564;SDS011;4320;51.498;6.556;2023-02-01T04:22:12;15.00;;;5.37;;
8564;SDS011;4320;51.498;6.556;2023-02-01T04:24:38;14.00;;;4.00;;
8564;SDS011;4320;51.498;6.556;2023-02-01T04:27:04;20.03;;;4.57;;
8564;SDS011;4320;51.498;6.556;2023-02-01T04:29:29;14.87;;;3.97;;
8564;SDS011;4320;51.498;6.556;2023-02-01T04:31:55;16.43;;;4.17;;
8564;SDS011;4320;51.498;6.556;2023-02-01T04:34:20;18.07;;;4.23;;
8564;SDS011;4320;51.498;6.556;2023-02-01T04:36:47;16.80;;;4.20;;
8564;SDS011;4320;51.498;6.556;2023-02-01T04:39:13;18.63;;;4.43;;
8564;SDS011;4320;51.498;6.556;2023-02-01T04:41:39;14.60;;;4.07;;
8564;SDS011;4320;51.498;6.556;2023-02-01T04:44:04;19.13;;;5.23;;
8564;SDS011;4320;51.498;6.556;2023-02-01T04:46:30;20.07;;;4.20;;
8564;SDS011;4320;51.498;6.556;2023-02-01T04:48:56;14.13;;;3.87;;
8564;SDS011;4320;51.498;6.556;2023-02-01T04:51:21;18.63;;;4.70;;
8564;SDS011;4320;51.498;6.556;2023-02-01T04:53:47;20.80;;;4.30;;
8564;SDS011;4320;51.498;6.556;2023-02-01T04:56:13;14.03;;;3.87;;
8564;SDS011;4320;51.498;6.556;2023-02-01T04:58:39;12.30;;;3.57;;
8564;SDS011;4320;51.498;6.556;2023-02-01T05:01:05;19.10;;;3.97;;
8564;SDS011;4320;51.498;6.556;2023-02-01T05:03:32;14.37;;;4.00;;
8564;SDS011;4320;51.498;6.556;2023-02-01T05:05:58;14.03;;;3.63;;
8564;SDS011;4320;51.498;6.556;2023-02-01T05:08:24;14.13;;;3.47;;
8564;SDS011;4320;51.498;6.556;2023-02-01T05:10:50;19.40;;;3.67;;
8564;SDS011;4320;51.498;6.556;2023-02-01T05:13:16;15.57;;;4.37;;
8564;SDS011;4320;51.498;6.556;2023-02-01T05:16:00;21.33;;;4.87;;
8564;SDS011;4320;51.498;6.556;2023-02-01T05:18:26;13.87;;;4.27;;
8564;SDS011;4320;51.498;6.556;2023-02-01T05:20:52;20.83;;;4.00;;
8564;SDS011;4320;51.498;6.556;2023-02-01T05:23:17;14.07;;;4.00;;
8564;SDS011;4320;51.498;6.556;2023-02-01T05:25:43;18.67;;;3.60;;
8564;SDS011;4320;51.498;6.556;2023-02-01T05:28:09;21.47;;;4.70;;
8564;SDS011;4320;51.498;6.556;2023-02-01T05:30:34;15.97;;;4.23;;
8564;SDS011;4320;51.498;6.556;2023-02-01T05:33:00;14.97;;;3.97;;
8564;SDS011;4320;51.498;6.556;2023-02-01T05:35:27;14.83;;;4.47;;
8564;SDS011;4320;51.498;6.556;2023-02-01T05:37:52;12.37;;;3.77;;
8564;SDS011;4320;51.498;6.556;2023-02-01T05:40:18;24.57;;;5.97;;
8564;SDS011;4320;51.498;6.556;2023-02-01T05:42:44;11.90;;;4.57;;
8564;SDS011;4320;51.498;6.556;2023-02-01T05:45:09;17.13;;;4.77;;
8564;SDS011;4320;51.498;6.556;2023-02-01T05:47:35;12.40;;;3.83;;
8564;SDS011;4320;51.498;6.556;2023-02-01T05:50:01;13.47;;;4.00;;
8564;SDS011;4320;51.498;6.556;2023-02-01T05:52:28;23.30;;;4.37;;
8564;SDS011;4320;51.498;6.556;2023-02-01T05:54:53;13.47;;;3.93;;
8564;SDS011;4320;51.498;6.556;2023-02-01T05:57:19;22.17;;;4.93;;
8564;SDS011;4320;51.498;6.556;2023-02-01T05:59:44;16.43;;;3.50;;
8564;SDS011;4320;51.498;6.556;2023-02-01T06:02:13;15.23;;;3.97;;
8564;SDS011;4320;51.498;6.556;2023-02-01T06:04:42;14.03;;;4.10;;
8564;SDS011;4320;51.498;6.556;2023-02-01T06:07:08;18.40;;;3.93;;
8564;SDS011;4320;51.498;6.556;2023-02-01T06:09:35;13.47;;;3.50;;
8564;SDS011;4320;51.498;6.556;2023-02-01T06:12:01;17.95;;;3.75;;
8564;SDS011;4320;51.498;6.556;2023-02-01T06:14:27;17.27;;;3.83;;
8564;SDS011;4320;51.498;6.556;2023-02-01T06:16:53;18.27;;;3.67;;
8564;SDS011;4320;51.498;6.556;2023-02-01T06:19:20;15.97;;;4.00;;
8564;SDS011;4320;51.498;6.556;2023-02-01T06:21:46;24.47;;;5.60;;
8564;SDS011;4320;51.498;6.556;2023-02-01T06:24:11;16.93;;;4.23;;
8564;SDS011;4320;51.498;6.556;2023-02-01T06:26:37;18.83;;;4.77;;
8564;SDS011;4320;51.498;6.556;2023-02-01T06:29:04;16.57;;;3.80;;
8564;SDS011;4320;51.498;6.556;2023-02-01T06:31:31;10.70;;;3.50;;
8564;SDS011;4320;51.498;6.556;2023-02-01T06:33:57;16.20;;;4.53;;
8564;SDS011;4320;51.498;6.556;2023-02-01T06:36:23;14.93;;;3.93;;
8564;SDS011;4320;51.498;6.556;2023-02-01T06:38:49;16.20;;;3.97;;
8564;SDS011;4320;51.498;6.556;2023-02-01T06:41:14;16.27;;;3.93;;
8564;SDS011;4320;51.498;6.556;2023-02-01T06:43:41;20.10;;;3.80;;
8564;SDS011;4320;51.498;6.556;2023-02-01T06:46:07;22.30;;;5.03;;
8564;SDS011;4320;51.498;6.556;2023-02-01T06:48:36;10.90;;;4.00;;
8564;SDS011;4320;51.498;6.556;2023-02-01T06:51:02;16.63;;;4.93;;
8564;SDS011;4320;51.498;6.556;2023-02-01T06:53:28;18.70;;;4.30;;
8564;SDS011;4320;51.498;6.556;2023-02-01T06:55:55;18.80;;;4.63;;
8564;SDS011;4320;51.498;6.556;2023-02-01T06:58:22;17.33;;;4.40;;
8564;SDS011;4320;51.498;6.556;2023-02-01T07:00:48;18.40;;;5.10;;
8564;SDS011;4320;51.498;6.556;2023-02-01T07:03:15;24.63;;;5.17;;
8564;SDS011;4320;51.498;6.556;2023-02-01T07:05:41;20.60;;;5.97;;
8564;SDS011;4320;51.498;6.556;2023-02-01T07:08:06;27.17;;;4.63;;
8564;SDS011;4320;51.498;6.556;2023-02-01T07:10:33;16.67;;;3.90;;
8564;SDS011;4320;51.498;6.556;2023-02-01T07:12:59;17.47;;;5.27;;
8564;SDS011;4320;51.498;6.556;2023-02-01T07:15:25;14.63;;;4.17;;
8564;SDS011;4320;51.498;6.556;2023-02-01T07:17:51;18.02;;;4.57;;
8564;SDS011;4320;51.498;6.556;2023-02-01T07:20:19;22.13;;;4.38;;
8564;SDS011;4320;51.498;6.556;2023-02-01T07:22:45;14.65;;;3.72;;
8564;SDS011;4320;51.498;6.556;2023-02-01T07:25:10;16.03;;;3.80;;
8564;SDS011;4320;51.498;6.556;2023-02-01T07:27:36;24.10;;;4.60;;
8564;SDS011;4320;51.498;6.556;2023-02-01T07:30:03;19.10;;;4.18;;
8564;SDS011;4320;51.498;6.556;2023-02-01T07:32:29;21.40;;;3.95;;
8564;SDS011;4320;51.498;6.556;2023-02-01T07:34:55;17.23;;;5.07;;
8564;SDS011;4320;51.498;6.556;2023-02-01T07:37:21;23.97;;;5.90;;
8564;SDS011;4320;51.498;6.556;2023-02-01T07:39:49;19.13;;;4.33;;
8564;SDS011;4320;51.498;6.556;2023-02-01T07:42:15;12.93;;;4.80;;
8564;SDS011;4320;51.498;6.556;2023-02-01T07:44:41;17.38;;;4.40;;
8564;SDS011;4320;51.498;6.556;2023-02-01T07:47:06;18.03;;;4.70;;
8564;SDS011;4320;51.498;6.556;2023-02-01T07:49:32;18.27;;;4.43;;
8564;SDS011;4320;51.498;6.556;2023-02-01T07:51:58;22.30;;;4.80;;
8564;SDS011;4320;51.498;6.556;2023-02-01T07:54:23;24.75;;;5.22;;
8564;SDS011;4320;51.498;6.556;2023-02-01T07:56:49;15.70;;;4.40;;
8564;SDS011;4320;51.498;6.556;2023-02-01T07:59:14;18.63;;;5.07;;
8564;SDS011;4320;51.498;6.556;2023-02-01T08:01:40;22.13;;;3.93;;
8564;SDS011;4320;51.498;6.556;2023-02-01T08:04:07;21.50;;;4.82;;
8564;SDS011;4320;51.498;6.556;2023-02-01T08:06:36;15.43;;;4.43;;
8564;SDS011;4320;51.498;6.556;2023-02-01T08:09:03;17.67;;;4.45;;
8564;SDS011;4320;51.498;6.556;2023-02-01T08:11:32;19.75;;;4.90;;
8564;SDS011;4320;51.498;6.556;2023-02-01T08:13:59;16.47;;;4.63;;
8564;SDS011;4320;51.498;6.556;2023-02-01T08:16:24;20.10;;;4.63;;
8564;SDS011;4320;51.498;6.556;2023-02-01T08:18:50;21.60;;;4.53;;
8564;SDS011;4320;51.498;6.556;2023-02-01T08:21:24;17.13;;;4.03;;
8564;SDS011;4320;51.498;6.556;2023-02-01T08:23:51;18.75;;;4.97;;
8564;SDS011;4320;51.498;6.556;2023-02-01T08:26:18;16.08;;;4.90;;
8564;SDS011;4320;51.498;6.556;2023-02-01T08:28:52;19.05;;;4.70;;
8564;SDS011;4320;51.498;6.556;2023-02-01T08:31:21;24.23;;;5.93;;
8564;SDS011;4320;51.498;6.556;2023-02-01T08:33:49;15.15;;;3.80;;
8564;SDS011;4320;51.498;6.556;2023-02-01T08:36:16;19.63;;;4.43;;
8564;SDS011;4320;51.498;6.556;2023-02-01T08:38:42;17.88;;;4.35;;
8564;SDS011;4320;51.498;6.556;2023-02-01T08:41:12;13.60;;;4.30;;
8564;SDS011;4320;51.498;6.556;2023-02-01T08:43:40;22.88;;;5.45;;
8564;SDS011;4320;51.498;6.556;2023-02-01T08:46:06;20.30;;;5.47;;
8564;SDS011;4320;51.498;6.556;2023-02-01T08:48:32;16.10;;;4.72;;
8564;SDS011;4320;51.498;6.556;2023-02-01T08:51:00;19.98;;;4.57;;
8564;SDS011;4320;51.498;6.556;2023-02-01T08:53:30;17.45;;;4.97;;
8564;SDS011;4320;51.498;6.556;2023-02-01T08:55:55;19.45;;;6.13;;
8564;SDS011;4320;51.498;6.556;2023-02-01T08:58:21;15.38;;;4.85;;
8564;SDS011;4320;51.498;6.556;2023-02-01T09:00:47;18.02;;;5.68;;
8564;SDS011;4320;51.498;6.556;2023-02-01T09:03:13;22.27;;;5.65;;
8564;SDS011;4320;51.498;6.556;2023-02-01T09:05:39;15.05;;;4.40;;
8564;SDS011;4320;51.498;6.556;2023-02-01T09:08:05;14.15;;;4.95;;
8564;SDS011;4320;51.498;6.556;2023-02-01T09:10:31;12.15;;;4.03;;
8564;SDS011;4320;51.498;6.556;2023-02-01T09:12:57;19.53;;;4.33;;
8564;SDS011;4320;51.498;6.556;2023-02-01T09:15:23;18.67;;;4.50;;
8564;SDS011;4320;51.498;6.556;2023-02-01T09:17:48;16.33;;;4.50;;
8564;SDS011;4320;51.498;6.556;2023-02-01T09:20:14;13.00;;;4.97;;
8564;SDS011;4320;51.498;6.556;2023-02-01T09:22:40;16.92;;;4.60;;
8564;SDS011;4320;51.498;6.556;2023-02-01T09:25:06;16.90;;;4.47;;
8564;SDS011;4320;51.498;6.556;2023-02-01T09:27:32;15.32;;;5.20;;
8564;SDS011;4320;51.498;6.556;2023-02-01T09:29:58;15.85;;;5.00;;
8564;SDS011;4320;51.498;6.556;2023-02-01T09:32:24;15.30;;;5.57;;
8564;SDS011;4320;51.498;6.556;2023-02-01T09:34:50;15.13;;;4.88;;
8564;SDS011;4320;51.498;6.556;2023-02-01T09:37:16;17.48;;;4.85;;
8564;SDS011;4320;51.498;6.556;2023-02-01T09:39:42;14.18;;;4.38;;
8564;SDS011;4320;51.498;6.556;2023-02-01T09:42:16;21.33;;;4.63;;
8564;SDS011;4320;51.498;6.556;2023-02-01T09:47:46;16.63;;;4.43;;
8564;SDS011;4320;51.498;6.556;2023-02-01T09:50:20;23.95;;;5.15;;
8564;SDS011;4320;51.498;6.556;2023-02-01T09:53:02;14.93;;;4.13;;
8564;SDS011;4320;51.498;6.556;2023-02-01T10:01:21;24.70;;;4.80;;
8564;SDS011;4320;51.498;6.556;2023-02-01T10:03:51;15.80;;;4.45;;
8564;SDS011;4320;51.498;6.556;2023-02-01T10:26:33;18.83;;;3.78;;
8564;SDS011;4320;51.498;6.556;2023-02-01T10:29:02;23.38;;;4.25;;
8564;SDS011;4320;51.498;6.556;2023-02-01T10:31:36;18.23;;;4.72;;
8564;SDS011;4320;51.498;6.556;2023-02-01T10:34:19;23.05;;;4.68;;
8564;SDS011;4320;51.498;6.556;2023-02-01T10:36:53;12.95;;;3.78;;
8564;SDS011;4320;51.498;6.556;2023-02-01T10:39:26;15.07;;;4.03;;
8564;SDS011;4320;51.498;6.556;2023-02-01T10:41:52;22.90;;;4.60;;
8564;SDS011;4320;51.498;6.556;2023-02-01T10:44:25;16.40;;;4.10;;
8564;SDS011;4320;51.498;6.556;2023-02-01T10:46:53;14.32;;;4.38;;
8564;SDS011;4320;51.498;6.556;2023-02-01T10:49:38;14.15;;;4.40;;
8564;SDS011;4320;51.498;6.556;2023-02-01T10:52:12;18.33;;;4.72;;
8564;SDS011;4320;51.498;6.556;2023-02-01T10:54:42;17.80;;;4.10;;
8564;SDS011;4320;51.498;6.556;2023-02-01T10:57:08;16.58;;;4.35;;
8564;SDS011;4320;51.498;6.556;2023-02-01T10:59:35;20.40;;;5.40;;
8564;SDS011;4320;51.498;6.556;2023-02-01T11:02:46;18.55;;;4.68;;
8564;SDS011;4320;51.498;6.556;2023-02-01T11:04:58;16.55;;;4.38;;
8564;SDS011;4320;51.498;6.556;2023-02-01T11:07:34;11.00;;;3.95;;
8564;SDS011;4320;51.498;6.556;2023-02-01T11:10:01;12.90;;;3.85;;
8564;SDS011;4320;51.498;6.556;2023-02-01T11:12:31;11.75;;;3.33;;
8564;SDS011;4320;51.498;6.556;2023-02-01T11:17:39;18.67;;;4.10;;
8564;SDS011;4320;51.498;6.556;2023-02-01T11:20:18;14.38;;;3.88;;
8564;SDS011;4320;51.498;6.556;2023-02-01T11:22:46;15.43;;;4.00;;
8564;SDS011;4320;51.498;6.556;2023-02-01T11:25:20;16.08;;;3.85;;
8564;SDS011;4320;51.498;6.556;2023-02-01T11:27:48;18.70;;;3.55;;
8564;SDS011;4320;51.498;6.556;2023-02-01T11:30:16;11.02;;;3.58;;
8564;SDS011;4320;51.498;6.556;2023-02-01T11:32:47;17.98;;;4.38;;
8564;SDS011;4320;51.498;6.556;2023-02-01T11:35:19;16.75;;;4.40;;
8564;SDS011;4320;51.498;6.556;2023-02-01T11:37:48;18.23;;;4.32;;
8564;SDS011;4320;51.498;6.556;2023-02-01T11:45:23;17.35;;;3.88;;
8564;SDS011;4320;51.498;6.556;2023-02-01T11:47:53;13.38;;;3.88;;
8564;SDS011;4320;51.498;6.556;2023-02-01T11:50:23;15.95;;;4.28;;
8564;SDS011;4320;51.498;6.556;2023-02-01T11:53:03;18.77;;;4.35;;
8564;SDS011;4320;51.498;6.556;2023-02-01T12:01:17;16.33;;;3.70;;
8564;SDS011;4320;51.498;6.556;2023-02-01T12:06:59;13.73;;;3.83;;
8564;SDS011;4320;51.498;6.556;2023-02-01T12:15:42;10.98;;;3.10;;
8564;SDS011;4320;51.498;6.556;2023-02-01T12:18:39;9.55;;;2.90;;
8564;SDS011;4320;51.498;6.556;2023-02-01T12:26:50;19.60;;;4.18;;
8564;SDS011;4320;51.498;6.556;2023-02-01T12:29:57;12.90;;;3.00;;
8564;SDS011;4320;51.498;6.556;2023-02-01T12:32:57;13.20;;;2.90;;
8564;SDS011;4320;51.498;6.556;2023-02-01T12:38:07;11.13;;;2.90;;
8564;SDS011;4320;51.498;6.556;2023-02-01T12:41:02;13.15;;;4.38;;
8564;SDS011;4320;51.498;6.556;2023-02-01T12:43:42;13.98;;;3.42;;
8564;SDS011;4320;51.498;6.556;2023-02-01T12:46:31;16.35;;;3.22;;
8564;SDS011;4320;51.498;6.556;2023-02-01T12:49:10;13.95;;;3.53;;
8564;SDS011;4320;51.498;6.556;2023-02-01T12:51:43;12.20;;;3.20;;
8564;SDS011;4320;51.498;6.556;2023-02-01T12:54:12;13.23;;;4.10;;
8564;SDS011;4320;51.498;6.556;2023-02-01T12:56:51;6.57;;;2.38;;
8564;SDS011;4320;51.498;6.556;2023-02-01T12:59:26;10.82;;;2.60;;
8564;SDS011;4320;51.498;6.556;2023-02-01T13:02:04;12.88;;;3.50;;
8564;SDS011;4320;51.498;6.556;2023-02-01T13:10:49;6.65;;;2.55;;
8564;SDS011;4320;51.498;6.556;2023-02-01T13:16:32;14.68;;;3.25;;
8564;SDS011;4320;51.498;6.556;2023-02-01T13:19:09;11.98;;;2.95;;
8564;SDS011;4320;51.498;6.556;2023-02-01T13:22:06;11.15;;;2.70;;
8564;SDS011;4320;51.498;6.556;2023-02-01T13:24:44;8.23;;;2.20;;
8564;SDS011;4320;51.498;6.556;2023-02-01T13:27:16;8.02;;;2.92;;
8564;SDS011;4320;51.498;6.556;2023-02-01T13:30:18;11.52;;;3.05;;
8564;SDS011;4320;51.498;6.556;2023-02-01T13:35:54;14.95;;;3.65;;
8564;SDS011;4320;51.498;6.556;2023-02-01T13:41:32;11.80;;;3.20;;
8564;SDS011;4320;51.498;6.556;2023-02-01T13:44:11;13.63;;;3.53;;
8564;SDS011;4320;51.498;6.556;2023-02-01T13:46:41;10.00;;;2.90;;
8564;SDS011;4320;51.498;6.556;2023-02-01T13:49:15;12.38;;;3.90;;
8564;SDS011;4320;51.498;6.556;2023-02-01T13:51:45;11.75;;;3.15;;
8564;SDS011;4320;51.498;6.556;2023-02-01T13:54:33;8.55;;;2.58;;
8564;SDS011;4320;51.498;6.556;2023-02-01T13:57:03;11.10;;;3.10;;
8564;SDS011;4320;51.498;6.556;2023-02-01T14:08:02;17.10;;;3.75;;
8564;SDS011;4320;51.498;6.556;2023-02-01T14:21:25;20.75;;;3.00;;
8564;SDS011;4320;51.498;6.556;2023-02-01T14:24:02;16.05;;;3.28;;
8564;SDS011;4320;51.498;6.556;2023-02-01T14:26:44;15.23;;;3.28;;
8564;SDS011;4320;51.498;6.556;2023-02-01T14:29:33;17.38;;;3.63;;
8564;SDS011;4320;51.498;6.556;2023-02-01T14:32:16;11.32;;;3.00;;
8564;SDS011;4320;51.498;6.556;2023-02-01T14:42:32;11.63;;;3.33;;
8564;SDS011;4320;51.498;6.556;2023-02-01T14:47:52;11.45;;;3.17;;
8564;SDS011;4320;51.498;6.556;2023-02-01T14:58:15;9.32;;;2.42;;
8564;SDS011;4320;51.498;6.556;2023-02-01T15:03:52;10.77;;;3.28;;
8564;SDS011;4320;51.498;6.556;2023-02-01T15:08:54;12.48;;;3.00;;
8564;SDS011;4320;51.498;6.556;2023-02-01T15:12:00;10.95;;;2.53;;
8564;SDS011;4320;51.498;6.556;2023-02-01T15:14:46;14.95;;;4.93;;
8564;SDS011;4320;51.498;6.556;2023-02-01T15:17:28;11.25;;;3.10;;
8564;SDS011;4320;51.498;6.556;2023-02-01T15:19:59;15.13;;;3.22;;
8564;SDS011;4320;51.498;6.556;2023-02-01T15:22:27;8.98;;;3.03;;
8564;SDS011;4320;51.498;6.556;2023-02-01T15:24:58;12.93;;;3.20;;
8564;SDS011;4320;51.498;6.556;2023-02-01T15:27:25;8.80;;;3.20;;
8564;SDS011;4320;51.498;6.556;2023-02-01T15:29:52;11.40;;;3.67;;
8564;SDS011;4320;51.498;6.556;2023-02-01T15:32:34;16.00;;;3.95;;
8564;SDS011;4320;51.498;6.556;2023-02-01T15:35:03;12.82;;;3.13;;
8564;SDS011;4320;51.498;6.556;2023-02-01T15:37:30;12.60;;;3.88;;
8564;SDS011;4320;51.498;6.556;2023-02-01T15:42:34;15.30;;;3.72;;
8564;SDS011;4320;51.498;6.556;2023-02-01T15:45:22;15.90;;;4.30;;
8564;SDS011;4320;51.498;6.556;2023-02-01T15:47:52;14.80;;;4.10;;
8564;SDS011;4320;51.498;6.556;2023-02-01T15:50:20;16.90;;;3.95;;
8564;SDS011;4320;51.498;6.556;2023-02-01T15:52:48;21.95;;;3.85;;
8564;SDS011;4320;51.498;6.556;2023-02-01T15:55:20;16.45;;;3.53;;
8564;SDS011;4320;51.498;6.556;2023-02-01T15:57:58;17.38;;;3.53;;
8564;SDS011;4320;51.498;6.556;2023-02-01T16:00:25;11.27;;;3.10;;
8564;SDS011;4320;51.498;6.556;2023-02-01T16:03:03;13.88;;;3.40;;
8564;SDS011;4320;51.498;6.556;2023-02-01T16:05:40;16.13;;;4.05;;
8564;SDS011;4320;51.498;6.556;2023-02-01T16:10:38;12.93;;;4.13;;
8564;SDS011;4320;51.498;6.556;2023-02-01T16:13:09;15.50;;;3.10;;
8564;SDS011;4320;51.498;6.556;2023-02-01T16:15:35;11.27;;;3.80;;
8564;SDS011;4320;51.498;6.556;2023-02-01T16:18:01;9.68;;;3.28;;
8564;SDS011;4320;51.498;6.556;2023-02-01T16:20:27;16.55;;;3.90;;
8564;SDS011;4320;51.498;6.556;2023-02-01T16:22:52;17.75;;;4.40;;
8564;SDS011;4320;51.498;6.556;2023-02-01T16:25:18;12.77;;;3.35;;
8564;SDS011;4320;51.498;6.556;2023-02-01T16:27:44;14.75;;;3.85;;
8564;SDS011;4320;51.498;6.556;2023-02-01T16:30:09;17.55;;;3.88;;
8564;SDS011;4320;51.498;6.556;2023-02-01T16:32:35;20.13;;;3.47;;
8564;SDS011;4320;51.498;6.556;2023-02-01T16:35:10;15.38;;;3.83;;
8564;SDS011;4320;51.498;6.556;2023-02-01T16:37:47;15.57;;;3.83;;
8564;SDS011;4320;51.498;6.556;2023-02-01T16:40:14;10.77;;;3.25;;
8564;SDS011;4320;51.498;6.556;2023-02-01T16:42:40;11.30;;;2.80;;
8564;SDS011;4320;51.498;6.556;2023-02-01T16:45:06;13.60;;;3.58;;
8564;SDS011;4320;51.498;6.556;2023-02-01T16:47:33;12.98;;;3.58;;
8564;SDS011;4320;51.498;6.556;2023-02-01T16:50:02;14.43;;;3.97;;
8564;SDS011;4320;51.498;6.556;2023-02-01T16:52:28;13.27;;;3.67;;
8564;SDS011;4320;51.498;6.556;2023-02-01T16:54:54;18.08;;;3.80;;
8564;SDS011;4320;51.498;6.556;2023-02-01T16:57:20;11.48;;;4.25;;
8564;SDS011;4320;51.498;6.556;2023-02-01T16:59:48;11.13;;;3.83;;
8564;SDS011;4320;51.498;6.556;2023-02-01T17:02:15;12.75;;;4.13;;
8564;SDS011;4320;51.498;6.556;2023-02-01T17:04:44;14.55;;;4.03;;
8564;SDS011;4320;51.498;6.556;2023-02-01T17:07:13;14.82;;;4.30;;
8564;SDS011;4320;51.498;6.556;2023-02-01T17:09:41;10.85;;;4.15;;
8564;SDS011;4320;51.498;6.556;2023-02-01T17:12:08;8.75;;;4.10;;
8564;SDS011;4320;51.498;6.556;2023-02-01T17:14:46;15.63;;;5.97;;
8564;SDS011;4320;51.498;6.556;2023-02-01T17:17:12;17.48;;;4.30;;
8564;SDS011;4320;51.498;6.556;2023-02-01T17:19:38;12.32;;;3.30;;
8564;SDS011;4320;51.498;6.556;2023-02-01T17:22:04;12.88;;;4.38;;
8564;SDS011;4320;51.498;6.556;2023-02-01T17:24:30;12.52;;;3.13;;
8564;SDS011;4320;51.498;6.556;2023-02-01T17:26:56;11.50;;;3.97;;
8564;SDS011;4320;51.498;6.556;2023-02-01T17:29:22;19.15;;;3.47;;
8564;SDS011;4320;51.498;6.556;2023-02-01T17:31:49;18.67;;;5.28;;
8564;SDS011;4320;51.498;6.556;2023-02-01T17:34:17;16.75;;;3.60;;
8564;SDS011;4320;51.498;6.556;2023-02-01T17:36:46;11.10;;;5.30;;
8564;SDS011;4320;51.498;6.556;2023-02-01T17:39:13;12.30;;;2.75;;
8564;SDS011;4320;51.498;6.556;2023-02-01T17:41:59;7.53;;;2.75;;
8564;SDS011;4320;51.498;6.556;2023-02-01T17:44:25;16.52;;;3.58;;
8564;SDS011;4320;51.498;6.556;2023-02-01T17:46:51;13.20;;;5.50;;
8564;SDS011;4320;51.498;6.556;2023-02-01T17:49:17;13.55;;;4.30;;
8564;SDS011;4320;51.498;6.556;2023-02-01T17:51:42;14.18;;;3.60;;
8564;SDS011;4320;51.498;6.556;2023-02-01T17:54:11;14.85;;;3.78;;